Point Fosdick, Washington
Current Conditions -  °F | °C
As of 5:53 PM on Wednesday 17 Dec 2014 (Local Time) from KTIW Reporting Station
Overcast Overcast  
Wind Chill: 45°   Ceiling: 3400
Heat Index: 45°   Visibility: 10mi
Dew Point: 44°   Wind: 0mph
Humidity: 97%   Direction: NA
Pressure: 29.89"   Gusts: NA
Location:  47.2986°N, 122.616°W
Report Text: KTIW 180153Z 00000KT 10SM OVC034 07/07 A2989 RMK AO2 RAB04E22 SLP122 P0000 T00720067
Loading
Personal Weather Stations






























Interactive Weather Map New forecast layout! Learn more

10-Day Weather Forecast

Advertisements
Track Severe Weather on mobile